Time;durP1;ratioP1;P1;durP2;ratioP2;P2;SDS_P1;SDS_P2;PMS_P1;PMS_P2;Temp;Humidity;BMP_temperature;BMP_pressure;BME280_temperature;BME280_humidity;BME280_pressure;Samples;Min_cycle;Max_cycle;Signal;HPM_P1;HPM_P2
2022/02/12 00:01:22;;;;;;;;;77.67;57.33;;;;;4.32;97.09;101666.53;6307836;22;11626;-72
2022/02/12 00:04:17;;;;;;;;;74.00;60.67;;;;;4.26;97.06;101666.75;6307825;22;9527;-72
2022/02/12 00:06:46;;;;;;;;;69.67;59.00;;;;;4.22;96.94;101662.88;6309486;22;8787;-73
2022/02/12 00:09:13;;;;;;;;;74.33;62.33;;;;;4.21;96.75;101669.44;6308486;22;8779;-73
2022/02/12 00:11:41;;;;;;;;;72.67;61.67;;;;;4.14;97.28;101661.47;6317037;22;8772;-72
2022/02/12 00:14:09;;;;;;;;;82.33;67.33;;;;;4.11;97.42;101664.75;6317386;22;11501;-73
2022/02/12 00:16:39;;;;;;;;;72.33;59.67;;;;;4.10;97.20;101663.91;6317073;22;8790;-73
2022/02/12 00:19:07;;;;;;;;;73.67;59.00;;;;;4.19;96.75;101659.59;6317034;22;11578;-72
2022/02/12 00:21:34;;;;;;;;;75.67;60.00;;;;;4.06;96.76;101662.78;6315806;22;11524;-73
2022/02/12 00:24:30;;;;;;;;;77.33;61.67;;;;;3.97;96.15;101653.41;6307453;22;8783;-73
2022/02/12 00:27:25;;;;;;;;;77.00;61.33;;;;;3.91;96.14;101651.75;6307493;22;8817;-73
2022/02/12 00:30:21;;;;;;;;;51.67;44.00;;;;;3.85;96.15;101658.28;6307969;22;8811;-73
2022/02/12 00:33:18;;;;;;;;;80.67;62.00;;;;;3.72;96.93;101655.97;6307142;22;8809;-73
2022/02/12 00:36:07;;;;;;;;;67.67;56.67;;;;;3.70;96.53;101666.38;6309042;22;8776;-73
2022/02/12 00:38:38;;;;;;;;;72.33;61.33;;;;;3.52;96.36;101668.38;6316595;22;8849;-73
2022/02/12 00:41:33;;;;;;;;;77.67;62.67;;;;;3.51;96.62;101665.91;6307414;22;8791;-73
2022/02/12 00:44:29;;;;;;;;;79.67;64.67;;;;;3.46;96.61;101663.97;6307561;22;8802;-73
2022/02/12 00:47:28;;;;;;;;;74.00;61.33;;;;;3.48;96.94;101677.38;6307231;22;8783;-73
2022/02/12 00:50:23;;;;;;;;;79.67;64.00;;;;;3.41;96.35;101677.59;6307534;22;8783;-73
2022/02/12 00:53:19;;;;;;;;;74.33;62.33;;;;;3.37;97.01;101684.66;6307280;22;8826;-73
2022/02/12 00:56:15;;;;;;;;;77.67;60.00;;;;;3.14;97.99;101680.31;6307593;22;8779;-73
2022/02/12 00:59:10;;;;;;;;;79.67;64.00;;;;;3.00;98.20;101685.38;6307243;22;8803;-73
2022/02/12 01:02:07;;;;;;;;;68.00;57.00;;;;;3.01;98.21;101689.75;6324081;22;8902;-73
2022/02/12 01:04:43;;;;;;;;;72.67;60.67;;;;;3.04;98.46;101689.22;6316545;22;8784;-73
2022/02/12 01:07:25;;;;;;;;;71.33;57.67;;;;;3.02;99.10;101685.94;6307387;22;8796;-73
2022/02/12 01:09:53;;;;;;;;;75.00;60.67;;;;;3.13;99.50;101681.41;6316632;22;8775;-74
2022/02/12 01:12:36;;;;;;;;;78.67;61.67;;;;;3.09;99.96;101691.22;6307472;22;8810;-73
2022/02/12 01:15:34;;;;;;;;;77.67;62.00;;;;;3.15;100.00;101683.91;6307228;22;8819;-73
2022/02/12 01:18:30;;;;;;;;;78.33;62.67;;;;;3.16;100.00;101691.84;6307047;22;8894;-73
2022/02/12 01:20:58;;;;;;;;;79.33;63.00;;;;;3.23;100.00;101694.38;6340550;22;8771;-73
2022/02/12 01:23:53;;;;;;;;;68.00;57.00;;;;;3.29;100.00;101694.13;6306767;22;8803;-73
2022/02/12 01:26:51;;;;;;;;;66.67;54.00;;;;;3.37;100.00;101700.22;6306795;22;8807;-74
2022/02/12 01:29:35;;;;;;;;;62.67;54.00;;;;;3.40;100.00;101700.56;6307677;22;8818;-74
2022/02/12 01:32:30;;;;;;;;;66.00;56.00;;;;;3.37;100.00;101702.97;6306977;22;11503;-72
2022/02/12 01:35:26;;;;;;;;;68.00;57.33;;;;;3.48;100.00;101699.25;6304784;22;8787;-74
2022/02/12 01:38:23;;;;;;;;;67.00;54.00;;;;;3.52;100.00;101703.94;6307317;22;11548;-73
2022/02/12 01:41:18;;;;;;;;;66.67;57.00;;;;;3.54;100.00;101703.69;6306697;22;11508;-74
2022/02/12 01:44:14;;;;;;;;;64.67;54.00;;;;;3.41;100.00;101701.38;6306777;22;11533;-74
2022/02/12 01:46:46;;;;;;;;;65.33;51.33;;;;;3.53;100.00;101713.00;6315984;22;11537;-74
2022/02/12 01:49:14;;;;;;;;;68.00;55.67;;;;;3.48;100.00;101710.19;6306673;22;11704;-74
2022/02/12 01:52:11;;;;;;;;;63.67;52.33;;;;;3.61;100.00;101709.78;6304579;22;11541;-74
2022/02/12 01:55:07;;;;;;;;;59.75;50.50;;;;;3.61;100.00;101712.53;6324274;22;11500;-74
2022/02/12 01:57:36;;;;;;;;;97.67;80.33;;;;;3.56;100.00;101705.09;6305443;22;12265;-74
2022/02/12 02:00:32;;;;;;;;;74.67;61.33;;;;;3.61;100.00;101715.25;6324372;22;8823;-74
2022/02/12 02:03:28;;;;;;;;;64.75;54.75;;;;;3.61;100.00;101710.63;6307130;22;8806;-74
2022/02/12 02:05:55;;;;;;;;;61.25;53.25;;;;;3.72;100.00;101702.50;6305384;22;11629;-74
2022/02/12 02:08:24;;;;;;;;;66.00;56.00;;;;;3.85;100.00;101696.59;6306662;22;11528;-73
2022/02/12 02:11:19;;;;;;;;;64.00;50.67;;;;;3.82;100.00;101697.09;6306444;22;11631;-74
2022/02/12 02:14:16;;;;;;;;;34.33;31.67;;;;;3.82;100.00;101694.34;6324133;22;11614;-74
2022/02/12 02:17:12;;;;;;;;;70.33;58.67;;;;;3.81;100.00;101695.44;6306411;22;11548;-74
2022/02/12 02:20:07;;;;;;;;;67.33;56.00;;;;;3.78;100.00;101696.81;6315076;22;8799;-74
2022/02/12 02:22:50;;;;;;;;;64.25;51.00;;;;;3.91;100.00;101698.28;6315959;22;11507;-74
2022/02/12 02:25:46;;;;;;;;;58.25;44.75;;;;;3.96;100.00;101701.03;6306730;22;11521;-74
2022/02/12 02:28:42;;;;;;;;;76.67;62.00;;;;;3.97;100.00;101694.47;6304138;22;11676;-74
2022/02/12 02:31:38;;;;;;;;;92.00;66.00;;;;;3.89;100.00;101703.16;6305887;22;11627;-73
2022/02/12 02:34:33;;;;;;;;;76.00;61.67;;;;;3.91;100.00;101698.28;6306757;22;8873;-74
2022/02/12 02:37:29;;;;;;;;;73.33;57.67;;;;;3.99;100.00;101688.72;6306731;22;8787;-74
2022/02/12 02:40:25;;;;;;;;;62.67;54.00;;;;;3.80;100.00;101688.31;6306520;22;11516;-74
2022/02/12 02:43:22;;;;;;;;;66.00;54.67;;;;;3.91;100.00;101681.88;6306451;22;11608;-74
2022/02/12 02:46:19;;;;;;;;;61.33;48.33;;;;;3.88;100.00;101674.97;6306581;22;11507;-74
2022/02/12 02:49:15;;;;;;;;;77.33;61.67;;;;;3.89;100.00;101684.00;6306559;22;8791;-73
2022/02/12 02:57:56;;;;;;;;;67.00;56.33;;;;;3.99;100.00;101673.16;6306839;22;11517;-74
2022/02/12 03:00:46;;;;;;;;;60.50;49.50;;;;;3.90;100.00;101680.19;6316252;22;11488;-74
2022/02/12 03:03:44;;;;;;;;;68.75;54.25;;;;;3.83;100.00;101680.44;6308304;22;11628;-74
2022/02/12 03:06:13;;;;;;;;;69.67;56.67;;;;;3.99;100.00;101681.38;6308915;22;11560;-74
2022/02/12 03:09:09;;;;;;;;;68.00;56.00;;;;;3.90;100.00;101685.66;6308292;22;11516;-73
2022/02/12 03:12:05;;;;;;;;;61.25;51.50;;;;;3.88;100.00;101687.84;6308448;22;11522;-74
2022/02/12 03:15:02;;;;;;;;;64.50;53.75;;;;;3.86;100.00;101690.03;6305689;22;11507;-74
2022/02/12 03:17:58;;;;;;;;;66.33;54.67;;;;;3.85;100.00;101682.91;6308122;22;11610;-74
2022/02/12 03:20:25;;;;;;;;;64.67;53.67;;;;;3.78;100.00;101685.03;6317565;22;11521;-74
2022/02/12 03:23:21;;;;;;;;;52.00;44.25;;;;;3.75;100.00;101693.75;6308325;22;11592;-74
2022/02/12 03:25:49;;;;;;;;;54.25;47.50;;;;;3.48;100.00;101696.53;6317675;22;11485;-74
2022/02/12 03:28:30;;;;;;;;;47.50;41.50;;;;;3.57;100.00;101682.13;6311276;22;11528;-74
2022/02/12 03:31:26;;;;;;;;;58.75;46.75;;;;;3.63;100.00;101688.47;6308194;22;11594;-74
2022/02/12 03:33:56;;;;;;;;;56.50;48.00;;;;;3.67;100.00;101675.91;6317222;22;11509;-74
2022/02/12 03:36:51;;;;;;;;;54.00;45.00;;;;;3.59;100.00;101685.41;6307974;22;11529;-74
2022/02/12 03:39:47;;;;;;;;;40.25;40.00;;;;;3.52;100.00;101694.91;6326546;22;12260;-74
2022/02/12 03:42:43;;;;;;;;;50.00;44.25;;;;;3.54;100.00;101704.53;6307794;22;11504;-73
2022/02/12 03:45:40;;;;;;;;;46.50;43.00;;;;;3.57;100.00;101703.16;6307693;22;12229;-74
2022/02/12 03:48:36;;;;;;;;;45.75;43.75;;;;;3.47;100.00;101698.44;6307810;22;11516;-74
2022/02/12 03:51:31;;;;;;;;;56.00;48.00;;;;;3.48;100.00;101694.63;6307955;22;11524;-73
2022/02/12 03:54:13;;;;;;;;;53.25;48.00;;;;;3.44;100.00;101701.66;6306510;22;11680;-73
2022/02/12 03:56:40;;;;;;;;;55.50;49.00;;;;;3.53;100.00;101702.88;6317375;22;11586;-73
2022/02/12 03:59:18;;;;;;;;;57.00;47.00;;;;;3.55;100.00;101697.97;6316214;22;11487;-74
2022/02/12 04:02:14;;;;;;;;;51.50;46.00;;;;;3.48;100.00;101694.63;6307949;22;11614;-73
2022/02/12 04:05:12;;;;;;;;;47.00;43.75;;;;;3.37;100.00;101698.31;6307892;22;12333;-74
2022/02/12 04:07:42;;;;;;;;;46.75;44.25;;;;;3.23;100.00;101688.91;6307840;22;11583;-73
2022/02/12 04:10:16;;;;;;;;;33.75;33.75;;;;;3.12;100.00;101689.84;6317318;22;11511;-73
2022/02/12 04:12:48;;;;;;;;;60.00;50.00;;;;;3.28;100.00;101695.22;6316541;22;11530;-74
2022/02/12 04:15:43;;;;;;;;;50.25;44.50;;;;;3.21;100.00;101691.88;6307919;22;11531;-73
2022/02/12 04:18:40;;;;;;;;;43.75;41.75;;;;;3.17;100.00;101684.44;6307660;22;11564;-73
2022/02/12 04:21:36;;;;;;;;;44.00;40.00;;;;;3.06;100.00;101688.97;6307712;22;11510;-73
2022/02/12 04:24:31;;;;;;;;;59.75;46.75;;;;;3.18;100.00;101681.47;6308087;22;11574;-73
2022/02/12 04:27:27;;;;;;;;;52.75;45.75;;;;;3.27;100.00;101679.91;6307326;22;11619;-73
2022/02/12 04:30:23;;;;;;;;;53.50;44.25;;;;;3.39;100.00;101684.41;6307207;22;12268;-73
2022/02/12 04:33:19;;;;;;;;;57.75;49.75;;;;;3.40;100.00;101688.78;6307603;22;11552;-72
2022/02/12 04:36:14;;;;;;;;;53.67;46.00;;;;;3.34;100.00;101688.72;6307682;22;11530;-72
2022/02/12 04:38:51;;;;;;;;;54.75;48.00;;;;;3.33;100.00;101691.72;6316955;22;11510;-72
2022/02/12 04:41:46;;;;;;;;;37.75;36.75;;;;;3.40;100.00;101695.09;6307496;22;11521;-73
2022/02/12 04:44:45;;;;;;;;;43.00;42.00;;;;;3.34;100.00;101691.47;6307259;22;11547;-73
2022/02/12 04:47:42;;;;;;;;;47.50;44.50;;;;;3.33;100.00;101689.00;6305088;22;11699;-73
2022/02/12 04:50:23;;;;;;;;;49.25;44.00;;;;;3.14;100.00;101693.97;6305995;22;11547;-72
2022/02/12 04:52:51;;;;;;;;;43.00;42.25;;;;;3.02;100.00;101687.84;6316317;22;11629;-73
2022/02/12 04:55:46;;;;;;;;;47.25;43.25;;;;;3.08;100.00;101680.53;6307270;22;12366;-73
2022/02/12 04:58:42;;;;;;;;;44.00;42.50;;;;;3.11;100.00;101686.31;6307363;22;11545;-73
2022/02/12 05:01:38;;;;;;;;;38.50;35.75;;;;;3.05;100.00;101692.78;6307318;22;11488;-73
2022/02/12 05:04:06;;;;;;;;;40.75;36.50;;;;;2.93;100.00;101698.41;6316387;22;12215;-73
2022/02/12 05:07:01;;;;;;;;;37.00;36.50;;;;;2.91;100.00;101699.72;6306761;22;11522;-73
2022/02/12 05:09:43;;;;;;;;;46.00;43.25;;;;;2.91;100.00;101689.63;6307611;22;11527;-73
2022/02/12 05:12:39;;;;;;;;;37.75;36.75;;;;;2.99;100.00;101694.66;6305520;22;11546;-72
2022/02/12 05:15:07;;;;;;;;;39.50;39.50;;;;;2.99;100.00;101702.84;6340686;22;11505;-73
2022/02/12 05:17:57;;;;;;;;;45.50;43.50;;;;;2.98;100.00;101701.19;6315207;22;11525;-73
2022/02/12 05:20:53;;;;;;;;;28.50;28.50;;;;;2.83;100.00;101701.00;6306951;22;11533;-73
2022/02/12 05:23:48;;;;;;;;;25.25;25.25;;;;;2.80;100.00;101701.50;6306720;22;11492;-72
2022/02/12 05:26:44;;;;;;;;;38.00;36.75;;;;;2.80;100.00;101698.78;6306735;22;12232;-72
2022/02/12 05:29:40;;;;;;;;;44.50;41.25;;;;;2.72;100.00;101697.31;6307145;22;11501;-72
2022/02/12 05:32:35;;;;;;;;;46.75;44.50;;;;;2.78;100.00;101684.56;6306895;22;11573;-72
2022/02/12 05:35:04;;;;;;;;;38.25;37.25;;;;;2.81;100.00;101689.50;6315677;22;11519;-73
2022/02/12 05:38:00;;;;;;;;;37.00;36.00;;;;;2.87;100.00;101687.66;6306272;22;11600;-72
2022/02/12 05:40:55;;;;;;;;;33.75;33.50;;;;;2.78;100.00;101674.47;6306478;22;11570;-72
2022/02/12 05:43:51;;;;;;;;;35.25;33.25;;;;;2.82;100.00;101665.75;6306400;22;11519;-72
2022/02/12 05:46:46;;;;;;;;;31.50;31.25;;;;;2.87;100.00;101679.47;6306547;22;11508;-72
2022/02/12 05:49:28;;;;;;;;;36.75;34.00;;;;;2.83;100.00;101670.94;6306466;22;11611;-72
2022/02/12 05:52:24;;;;;;;;;36.25;35.25;;;;;2.88;100.00;101670.19;6306419;22;11526;-72
2022/02/12 05:54:52;;;;;;;;;38.00;35.25;;;;;2.94;100.00;101669.16;6340230;22;12245;-72
2022/02/12 05:57:19;;;;;;;;;49.50;39.75;;;;;2.96;100.00;101673.28;6306342;22;11522;-72
2022/02/12 05:59:47;;;;;;;;;39.00;36.00;;;;;2.91;100.00;101678.69;6314030;22;11538;-72
2022/02/12 06:02:30;;;;;;;;;33.75;33.25;;;;;2.79;100.00;101676.09;6306939;22;11508;-71
2022/02/12 06:04:57;;;;;;;;;41.75;36.00;;;;;2.87;100.00;101682.19;6339312;22;11491;-73
2022/02/12 06:07:53;;;;;;;;;43.50;36.50;;;;;2.89;100.00;101680.84;6304352;22;11640;-73
2022/02/12 06:10:22;;;;;;;;;46.75;40.75;;;;;2.89;100.00;101680.03;6305192;22;11509;-73
2022/02/12 06:12:58;;;;;;;;;40.00;34.00;;;;;2.95;100.00;101679.84;6305753;22;11567;-72
2022/02/12 06:15:36;;;;;;;;;32.75;31.75;;;;;2.99;100.00;101682.88;6314487;22;11490;-72
2022/02/12 06:18:09;;;;;;;;;37.00;35.50;;;;;2.88;100.00;101673.75;6314057;22;11499;-73
2022/02/12 06:20:36;;;;;;;;;34.00;31.75;;;;;2.87;100.00;101668.53;6304947;22;11541;-72
2022/02/12 06:23:20;;;;;;;;;31.25;31.25;;;;;2.83;100.00;101673.66;6305551;22;11604;-74
2022/02/12 06:25:48;;;;;;;;;33.00;33.00;;;;;2.89;100.00;101666.38;6313545;22;11619;-73
2022/02/12 06:28:16;;;;;;;;;39.50;38.00;;;;;2.90;100.00;101670.75;6302690;22;11568;-73
2022/02/12 06:31:01;;;;;;;;;45.25;38.75;;;;;2.98;100.00;101662.91;6302519;22;11558;-73
2022/02/12 06:33:30;;;;;;;;;40.25;32.00;;;;;2.94;100.00;101666.44;6314211;22;11549;-74
2022/02/12 06:35:59;;;;;;;;;37.75;37.50;;;;;2.91;100.00;101659.56;6316530;22;11538;-73
2022/02/12 06:38:55;;;;;;;;;34.50;34.50;;;;;2.92;100.00;101657.69;6308359;22;11526;-73
2022/02/12 06:41:23;;;;;;;;;35.50;32.25;;;;;2.93;100.00;101653.84;6317591;22;11501;-73
2022/02/12 06:43:51;;;;;;;;;36.75;32.50;;;;;2.99;100.00;101667.31;6308621;22;12285;-74
2022/02/12 06:46:19;;;;;;;;;44.25;33.00;;;;;3.05;100.00;101665.44;6318172;22;11498;-73
2022/02/12 06:49:15;;;;;;;;;50.75;33.00;;;;;3.09;100.00;101674.81;6308247;22;12267;-72
2022/02/12 06:52:11;;;;;;;;;49.75;37.50;;;;;2.99;100.00;101661.88;6308018;22;11509;-72
2022/02/12 06:54:40;;;;;;;;;43.50;41.50;;;;;2.95;100.00;101673.56;6317554;22;12267;-73
2022/02/12 06:57:07;;;;;;;;;30.25;28.25;;;;;2.95;100.00;101671.63;6317275;22;12204;-73
2022/02/12 06:59:36;;;;;;;;;49.00;45.25;;;;;3.01;100.00;101672.53;6308547;22;11573;-74
2022/02/12 07:02:05;;;;;;;;;40.00;38.00;;;;;2.94;100.00;101680.91;6317022;22;11576;-73
2022/02/12 07:05:01;;;;;;;;;40.25;32.00;;;;;2.90;100.00;101671.56;6307883;22;12343;-73
2022/02/12 07:07:44;;;;;;;;;38.00;33.75;;;;;2.84;100.00;101671.75;6317253;22;11534;-73
2022/02/12 07:10:13;;;;;;;;;33.75;32.00;;;;;2.92;100.00;101669.44;6317022;22;12179;-73
2022/02/12 07:12:49;;;;;;;;;34.25;32.75;;;;;3.06;100.00;101675.31;6317661;22;11583;-73
2022/02/12 07:15:21;;;;;;;;;52.25;40.50;;;;;3.21;100.00;101680.94;6317348;22;11511;-72
2022/02/12 07:17:50;;;;;;;;;43.75;41.00;;;;;3.17;100.00;101681.72;6317023;22;11518;-73
2022/02/12 07:20:19;;;;;;;;;49.50;41.25;;;;;3.06;100.00;101678.03;6306292;22;12330;-73
2022/02/12 07:22:57;;;;;;;;;48.25;42.25;;;;;3.11;100.00;101669.91;6315569;22;11581;-72
2022/02/12 07:25:25;;;;;;;;;36.50;36.50;;;;;3.16;100.00;101674.59;6315919;22;12236;-71
2022/02/12 07:28:21;;;;;;;;;29.25;25.00;;;;;3.26;100.00;101670.06;6306604;22;11534;-73
2022/02/12 07:30:51;;;;;;;;;26.00;25.50;;;;;3.30;100.00;101675.84;6315961;22;11584;-75
2022/02/12 07:33:46;;;;;;;;;24.00;24.00;;;;;4.32;100.00;101654.75;6286163;22;12312;-75
2022/02/12 07:36:42;;;;;;;;;34.50;33.75;;;;;3.95;100.00;101663.81;6307807;22;11504;-75
2022/02/12 07:39:38;;;;;;;;;23.00;23.00;;;;;4.07;100.00;101667.19;6308175;22;11546;-75
2022/02/12 07:42:36;;;;;;;;;29.00;29.00;;;;;3.63;100.00;101670.13;6307397;22;11510;-73
2022/02/12 07:45:32;;;;;;;;;27.25;26.50;;;;;3.61;100.00;101660.53;6307886;22;11587;-73
2022/02/12 07:48:00;;;;;;;;;23.50;22.50;;;;;3.45;100.00;101665.06;6315961;22;11510;-72
2022/02/12 07:50:28;;;;;;;;;17.00;17.00;;;;;3.51;100.00;101657.69;6316699;22;12255;-73
2022/02/12 07:52:56;;;;;;;;;27.75;25.50;;;;;3.52;100.00;101670.28;6316960;22;11497;-73
2022/02/12 07:55:30;;;;;;;;;32.00;25.75;;;;;3.59;100.00;101669.00;6315446;22;11560;-73
2022/02/12 07:58:25;;;;;;;;;24.75;24.75;;;;;3.52;100.00;101654.69;6307348;22;11515;-73
2022/02/12 08:01:08;;;;;;;;;27.25;27.25;;;;;3.56;100.00;101655.84;6309082;22;11534;-73
2022/02/12 08:03:36;;;;;;;;;26.25;26.25;;;;;3.36;100.00;101658.38;6317062;22;11488;-73
2022/02/12 08:07:27;;;;;;;;;20.50;20.50;;;;;3.65;100.00;101655.38;6308141;22;12225;-73
2022/02/12 08:08:54;;;;;;;;;27.00;27.00;;;;;3.61;100.00;101655.91;6313011;22;12209;-73
2022/02/12 08:11:53;;;;;;;;;28.00;21.75;;;;;4.21;100.00;101662.06;6307152;22;11498;-76
2022/02/12 08:14:23;;;;;;;;;29.25;29.25;;;;;4.36;100.00;101664.06;6341139;22;11546;-76
2022/02/12 08:16:50;;;;;;;;;22.25;16.75;;;;;4.28;100.00;101668.13;6316461;22;11666;-75
2022/02/12 08:19:18;;;;;;;;;26.00;26.00;;;;;5.29;100.00;101675.94;6316728;22;11494;-75
2022/02/12 08:21:47;;;;;;;;;22.00;21.75;;;;;4.41;100.00;101662.19;6316817;22;11586;-76
2022/02/12 08:24:14;;;;;;;;;27.00;26.00;;;;;4.33;100.00;101670.06;6317196;22;11514;-74
2022/02/12 08:26:42;;;;;;;;;31.50;23.00;;;;;5.55;100.00;101673.22;6316883;22;11485;-76
2022/02/12 08:29:10;;;;;;;;;28.00;26.75;;;;;5.59;100.00;101672.38;6316887;22;11495;-75
2022/02/12 08:31:39;;;;;;;;;25.50;25.50;;;;;5.88;100.00;101671.03;6308260;22;11524;-76
2022/02/12 08:34:06;;;;;;;;;22.00;21.50;;;;;4.74;100.00;101680.13;6315557;22;12169;-75
2022/02/12 08:36:34;;;;;;;;;27.00;25.50;;;;;4.32;100.00;101684.88;6316720;22;11559;-75
2022/02/12 08:39:02;;;;;;;;;24.50;24.50;;;;;4.69;100.00;101687.53;6317196;22;11502;-74
2022/02/12 08:41:30;;;;;;;;;29.75;29.00;;;;;4.62;100.00;101682.28;6315696;22;11578;-74
2022/02/12 08:43:58;;;;;;;;;23.75;21.75;;;;;4.74;100.00;101688.34;6308099;22;12237;-76
2022/02/12 08:46:26;;;;;;;;;31.25;28.25;;;;;5.96;100.00;101690.53;6307714;22;11488;-76
2022/02/12 08:48:53;;;;;;;;;36.50;29.00;;;;;5.19;100.00;101697.03;6316604;22;11499;-75
2022/02/12 08:51:21;;;;;;;;;30.00;25.50;;;;;5.72;100.00;101693.00;6315187;22;11655;-75
2022/02/12 08:53:49;;;;;;;;;25.75;24.75;;;;;6.33;100.00;101703.13;6316645;22;11490;-75
2022/02/12 08:56:17;;;;;;;;;29.50;28.25;;;;;6.10;100.00;101704.53;6306204;22;12278;-75
2022/02/12 08:58:48;;;;;;;;;30.25;30.25;;;;;6.07;100.00;101705.09;6316795;22;11538;-75
2022/02/12 09:01:16;;;;;;;;;27.00;25.75;;;;;5.66;100.00;101709.72;6316828;22;12192;-75
2022/02/12 09:03:44;;;;;;;;;29.25;29.25;;;;;6.37;100.00;101704.25;6307302;22;11505;-75
2022/02/12 09:06:11;;;;;;;;;36.25;34.75;;;;;5.62;100.00;101714.13;6307139;22;12320;-74
2022/02/12 09:08:39;;;;;;;;;25.25;25.25;;;;;5.78;100.00;101718.53;6315694;22;11516;-75
2022/02/12 09:11:06;;;;;;;;;23.75;23.25;;;;;5.66;100.00;101717.97;6316589;22;11504;-76
2022/02/12 09:13:35;;;;;;;;;30.00;29.25;;;;;5.45;100.00;101711.63;6316591;22;11505;-75
2022/02/12 09:16:03;;;;;;;;;27.75;27.00;;;;;5.59;100.00;101718.22;6316632;22;11621;-75
2022/02/12 09:18:31;;;;;;;;;29.00;26.75;;;;;6.64;100.00;101715.69;6280530;22;11513;-74
2022/02/12 09:21:00;;;;;;;;;31.50;31.50;;;;;6.54;100.00;101712.16;6316537;22;11495;-74
2022/02/12 09:23:28;;;;;;;;;26.75;26.75;;;;;6.69;100.00;101704.69;6316676;22;11515;-75
2022/02/12 09:25:56;;;;;;;;;34.50;32.00;;;;;6.62;100.00;101708.84;6316281;22;11582;-74
2022/02/12 09:28:24;;;;;;;;;39.25;35.50;;;;;6.41;99.95;101702.56;6316332;22;11590;-75
2022/02/12 09:30:52;;;;;;;;;28.50;27.00;;;;;6.12;99.39;101705.91;6316493;22;11503;-74
2022/02/12 09:33:20;;;;;;;;;27.75;27.75;;;;;6.82;100.00;101700.50;6316383;22;11504;-75
2022/02/12 09:35:56;;;;;;;;;33.50;33.50;;;;;6.71;100.00;101690.66;6316497;22;11484;-75
2022/02/12 09:38:26;;;;;;;;;29.00;29.00;;;;;6.37;100.00;101680.34;6315034;22;11498;-75
2022/02/12 09:40:53;;;;;;;;;15.00;15.00;;;;;6.86;100.00;101670.53;6315069;22;11491;-76
2022/02/12 09:43:23;;;;;;;;;40.50;38.25;;;;;7.02;100.00;101669.34;6316679;22;12340;-76
2022/02/12 09:45:57;;;;;;;;;39.00;37.25;;;;;6.36;99.30;101664.09;6316519;22;11524;-76
2022/02/12 09:48:27;;;;;;;;;27.50;27.50;;;;;6.50;100.00;101659.66;6314902;22;11527;-75
2022/02/12 09:51:00;;;;;;;;;44.75;40.00;;;;;6.15;99.58;101655.09;6316404;22;11530;-75
2022/02/12 09:53:29;;;;;;;;;38.75;35.00;;;;;7.15;100.00;101678.91;6329095;22;11555;-75
2022/02/12 09:55:59;;;;;;;;;32.75;32.50;;;;;7.80;100.00;101691.38;6315980;22;11512;-75
2022/02/12 09:58:27;;;;;;;;;39.75;36.75;;;;;7.18;98.71;101676.41;6307130;22;11506;-76
2022/02/12 10:00:56;;;;;;;;;39.00;38.00;;;;;7.33;99.72;101692.00;6316175;22;11521;-75
2022/02/12 10:03:25;;;;;;;;;29.25;28.25;;;;;7.25;100.00;101695.34;6305733;22;11652;-75
2022/02/12 10:05:54;;;;;;;;;39.75;36.75;;;;;7.61;100.00;101703.41;6304455;22;11483;-76
2022/02/12 10:08:23;;;;;;;;;41.75;40.00;;;;;7.53;96.69;101700.16;6305314;22;11533;-75
2022/02/12 10:10:52;;;;;;;;;30.75;27.75;;;;;7.78;99.17;101701.06;6307458;22;12308;-74
2022/02/12 10:13:23;;;;;;;;;36.25;36.25;;;;;6.34;91.69;101689.13;6317074;22;11502;-75
2022/02/12 10:16:03;;;;;;;;;43.00;39.50;;;;;5.78;94.37;101686.41;6307818;22;12207;-73
2022/02/12 10:18:59;;;;;;;;;44.25;42.00;;;;;5.23;97.79;101684.44;6309237;22;11527;-74
2022/02/12 10:22:15;;;;;;;;;38.25;34.75;;;;;4.96;99.51;101679.94;6309174;22;11524;-75
2022/02/12 10:25:11;;;;;;;;;52.50;45.75;;;;;4.82;100.00;101676.06;6308934;22;11551;-72
2022/02/12 10:28:07;;;;;;;;;47.25;44.00;;;;;4.78;100.00;101687.84;6308763;22;12416;-74
2022/02/12 10:31:04;;;;;;;;;55.25;47.25;;;;;4.69;100.00;101693.00;6308502;22;11560;-74
2022/02/12 10:34:05;;;;;;;;;52.00;44.00;;;;;4.85;100.00;101691.97;6307155;22;11687;-74
2022/02/12 10:37:02;;;;;;;;;58.25;50.00;;;;;4.80;100.00;101686.47;6308378;22;11500;-74
2022/02/12 10:40:01;;;;;;;;;65.75;54.25;;;;;4.73;100.00;101691.38;6308650;22;11628;-74
2022/02/12 10:42:46;;;;;;;;;65.75;55.00;;;;;4.85;100.00;101682.94;6308876;22;11531;-74
2022/02/12 10:45:18;;;;;;;;;54.50;47.25;;;;;4.95;100.00;101680.22;6317590;22;11499;-73
2022/02/12 10:48:13;;;;;;;;;41.50;40.50;;;;;4.95;100.00;101696.66;6309040;22;11597;-73
2022/02/12 10:50:43;;;;;;;;;61.00;51.50;;;;;4.99;100.00;101687.66;6318162;22;11487;-74
2022/02/12 10:53:10;;;;;;;;;52.75;45.25;;;;;5.23;100.00;101687.16;6308578;22;11551;-73
2022/02/12 10:56:03;;;;;;;;;57.50;43.75;;;;;5.21;100.00;101684.69;6307565;22;11519;-74
2022/02/12 10:58:34;;;;;;;;;64.50;53.25;;;;;5.23;100.00;101690.72;6306530;22;11517;-74
2022/02/12 11:01:03;;;;;;;;;52.50;46.50;;;;;5.28;100.00;101693.47;6317351;22;11538;-74
2022/02/12 11:03:33;;;;;;;;;62.25;53.00;;;;;5.20;100.00;101682.22;6306967;22;11527;-74
2022/02/12 11:06:01;;;;;;;;;57.75;48.00;;;;;5.22;100.00;101689.09;6314959;22;11609;-72
2022/02/12 11:08:30;;;;;;;;;49.25;42.25;;;;;5.14;100.00;101689.63;6317357;22;11523;-74
2022/02/12 11:11:00;;;;;;;;;63.25;50.25;;;;;5.14;100.00;101691.53;6318921;22;11555;-74
2022/02/12 11:13:31;;;;;;;;;59.50;51.50;;;;;5.15;100.00;101693.19;6316773;22;12180;-73
2022/02/12 11:15:59;;;;;;;;;40.50;38.50;;;;;5.17;100.00;101694.56;6318056;22;11478;-75
2022/02/12 11:18:31;;;;;;;;;64.00;50.50;;;;;5.20;100.00;101696.75;6317353;22;11638;-73
2022/02/12 11:20:59;;;;;;;;;54.75;48.75;;;;;5.34;99.47;101698.97;6317429;22;11514;-73
2022/02/12 11:23:28;;;;;;;;;60.00;49.00;;;;;5.34;99.81;101704.47;6308147;22;12319;-73
2022/02/12 11:26:24;;;;;;;;;55.50;47.25;;;;;5.33;99.87;101711.88;6307507;22;11540;-74
2022/02/12 11:29:42;;;;;;;;;57.00;47.75;;;;;5.40;99.46;101711.63;6307399;22;11573;-72
2022/02/12 11:32:44;;;;;;;;;60.00;50.75;;;;;5.51;98.72;101716.00;6308452;22;11499;-73
2022/02/12 11:35:12;;;;;;;;;53.00;46.00;;;;;5.67;98.86;101711.38;6317717;22;11556;-74
2022/02/12 11:37:44;;;;;;;;;49.75;43.00;;;;;5.76;97.56;101709.75;6316008;22;11493;-74
2022/02/12 11:40:25;;;;;;;;;51.25;45.00;;;;;5.78;97.72;101713.84;6315903;22;11522;-74
2022/02/12 11:42:58;;;;;;;;;42.00;39.50;;;;;5.88;97.68;101703.97;6317545;22;10993;-74
2022/02/12 11:45:31;;;;;;;;;50.50;43.75;;;;;5.97;96.03;101705.09;6306225;22;11584;-75
2022/02/12 11:48:11;;;;;;;;;57.75;48.75;;;;;5.98;96.65;101704.00;6317503;22;11500;-76
2022/02/12 11:50:42;;;;;;;;;46.50;42.00;;;;;6.02;96.24;101707.84;6308168;22;11507;-75
2022/02/12 11:53:46;;;;;;;;;44.25;40.00;;;;;6.03;96.26;101718.56;6317488;22;11581;-74
2022/02/12 11:56:22;;;;;;;;;55.75;46.50;;;;;6.08;95.36;101717.75;6308121;22;12204;-74
2022/02/12 11:58:51;;;;;;;;;48.75;43.75;;;;;6.09;95.08;101722.13;6317171;22;11596;-74
2022/02/12 12:01:22;;;;;;;;;51.50;46.25;;;;;6.05;94.07;101729.25;6316992;22;11506;-74
2022/02/12 12:04:11;;;;;;;;;60.75;50.75;;;;;6.06;94.65;101734.50;6316976;22;11505;-74
2022/02/12 12:07:08;;;;;;;;;45.75;39.75;;;;;6.06;95.22;101737.25;6311468;22;11503;-74
2022/02/12 12:09:39;;;;;;;;;45.00;41.75;;;;;6.11;93.85;101755.63;6306287;22;11540;-74
2022/02/12 12:12:21;;;;;;;;;35.50;35.00;;;;;6.18;91.90;101755.34;6317239;22;11554;-75
2022/02/12 12:15:12;;;;;;;;;28.75;28.75;;;;;6.13;91.11;101757.03;6315797;22;11491;-73
2022/02/12 12:17:41;;;;;;;;;28.50;27.50;;;;;6.24;90.92;101752.34;6316669;22;11509;-75
2022/02/12 12:20:41;;;;;;;;;26.50;26.50;;;;;6.02;89.07;101768.25;6307416;22;11548;-74
2022/02/12 12:23:16;;;;;;;;;24.00;23.00;;;;;5.91;88.37;101763.88;6316797;22;11493;-75